Time;durP1;ratioP1;P1;durP2;ratioP2;P2;SDS_P1;SDS_P2;PMS_P1;PMS_P2;Temp;Humidity;BMP_temperature;BMP_pressure;BME280_temperature;BME280_humidity;BME280_pressure;Samples;Min_cycle;Max_cycle;Signal;HPM_P1;HPM_P2
2021/03/30 00:01:24;;;;;;;30.42;14.30;;;256.80;1510.40;;;;;;5095442;28;20035;-71
2021/03/30 00:03:50;;;;;;;29.33;16.08;;;256.70;1510.40;;;;;;5095588;28;20027;-71
2021/03/30 00:06:16;;;;;;;26.98;15.55;;;256.70;1536.00;;;;;;5095142;28;20024;-71
2021/03/30 00:08:43;;;;;;;27.85;15.20;;;256.60;1536.00;;;;;;5095330;28;20032;-70
2021/03/30 00:11:09;;;;;;;25.15;14.05;;;256.60;1536.00;;;;;;5095327;28;20419;-70
2021/03/30 00:13:35;;;;;;;28.45;14.68;;;256.60;1536.00;;;;;;5095286;28;20051;-71
2021/03/30 00:16:02;;;;;;;32.15;15.35;;;256.50;1536.00;;;;;;5095171;28;20044;-70
2021/03/30 00:18:28;;;;;;;31.10;14.70;;;256.50;1536.00;;;;;;5093290;28;20032;-71
2021/03/30 00:20:53;;;;;;;32.35;15.88;;;256.50;1536.00;;;;;;5095015;28;20081;-71
2021/03/30 00:23:19;;;;;;;34.00;16.15;;;256.50;1536.00;;;;;;5095114;28;20035;-71
2021/03/30 00:25:45;;;;;;;34.95;17.23;;;256.50;1561.60;;;;;;5095142;28;20031;-71
2021/03/30 00:28:10;;;;;;;32.35;16.33;;;256.40;1561.60;;;;;;5095370;28;20028;-71
2021/03/30 00:30:36;;;;;;;32.95;18.00;;;256.40;1561.60;;;;;;5094896;28;20381;-71
2021/03/30 00:33:03;;;;;;;32.33;16.65;;;256.40;1561.60;;;;;;5094810;28;20024;-70
2021/03/30 00:35:28;;;;;;;33.58;19.08;;;256.30;1561.60;;;;;;5094444;28;20478;-71
2021/03/30 00:37:54;;;;;;;29.88;17.77;;;256.30;1561.60;;;;;;5094598;28;20158;-70
2021/03/30 00:40:20;;;;;;;36.40;18.75;;;256.30;1587.20;;;;;;5094927;28;20046;-71
2021/03/30 00:42:46;;;;;;;40.78;19.98;;;256.30;1587.20;;;;;;5094729;28;20040;-72
2021/03/30 00:45:13;;;;;;;36.33;20.65;;;256.20;1587.20;;;;;;5093913;28;20452;-72
2021/03/30 00:47:45;;;;;;;38.47;20.60;;;256.20;1587.20;;;;;;5094301;28;20028;-72
2021/03/30 00:50:15;;;;;;;37.90;20.20;;;256.20;1587.20;;;;;;5094449;28;20373;-72
2021/03/30 00:52:43;;;;;;;36.88;20.90;;;256.20;1587.20;;;;;;5094350;28;20522;-71
2021/03/30 00:55:10;;;;;;;37.08;19.63;;;256.20;1587.20;;;;;;5094539;28;20093;-71
2021/03/30 00:57:36;;;;;;;39.38;20.90;;;256.10;1587.20;;;;;;5094656;28;20047;-72
2021/03/30 01:00:04;;;;;;;42.30;21.60;;;256.10;1587.20;;;;;;5094382;28;20073;-72
2021/03/30 01:02:31;;;;;;;36.78;21.00;;;256.10;1561.60;;;;;;5093931;28;20059;-71
2021/03/30 01:04:56;;;;;;;33.75;20.25;;;256.00;1561.60;;;;;;5094429;28;20074;-71
2021/03/30 01:07:22;;;;;;;37.25;19.60;;;256.00;1561.60;;;;;;5094097;28;20028;-72
2021/03/30 01:10:06;;;;;;;36.83;20.30;;;256.00;1561.60;;;;;;5094114;28;20046;-72
2021/03/30 01:12:38;;;;;;;42.05;20.98;;;256.00;1561.60;;;;;;5094168;28;20477;-72
2021/03/30 01:15:18;;;;;;;40.70;20.25;;;256.00;1561.60;;;;;;5094144;28;20020;-71
2021/03/30 01:18:03;;;;;;;38.38;21.30;;;231.30;1561.60;;;;;;5093814;28;20040;-71
2021/03/30 01:21:02;;;;;;;37.22;20.80;;;231.30;1587.20;;;;;;5094040;28;20055;-73
2021/03/30 01:23:31;;;;;;;40.20;21.35;;;231.30;1612.80;;;;;;5094025;28;20038;-72
2021/03/30 01:26:22;;;;;;;41.45;20.25;;;231.30;1612.80;;;;;;5094116;28;20070;-74
2021/03/30 01:29:00;;;;;;;37.20;18.90;;;231.30;1612.80;;;;;;5031676;28;20490;-74
2021/03/30 01:31:29;;;;;;;47.00;21.40;;;231.30;1612.80;;;;;;5031770;28;20544;-70
2021/03/30 01:33:57;;;;;;;44.42;20.67;;;231.30;1612.80;;;;;;5031705;28;20045;-71
2021/03/30 01:36:24;;;;;;;39.35;21.38;;;256.00;1612.80;;;;;;5031349;28;20495;-71
2021/03/30 01:38:51;;;;;;;44.65;22.13;;;256.00;1612.80;;;;;;5031250;28;20188;-71
2021/03/30 01:41:21;;;;;;;39.15;20.25;;;256.00;1612.80;;;;;;5014995;28;20037;-71
2021/03/30 01:43:48;;;;;;;39.17;20.98;;;256.00;1612.80;;;;;;5031559;28;20096;-71
2021/03/30 01:46:14;;;;;;;43.85;21.58;;;256.00;1612.80;;;;;;5031568;28;20403;-71
2021/03/30 01:48:42;;;;;;;42.50;21.75;;;256.00;1612.80;;;;;;5031583;28;20053;-72
2021/03/30 01:51:10;;;;;;;42.33;20.70;;;256.00;1612.80;;;;;;5031534;28;20030;-72
2021/03/30 01:53:37;;;;;;;43.08;19.45;;;256.00;1612.80;;;;;;5014998;28;20056;-71
2021/03/30 01:56:05;;;;;;;41.75;20.63;;;256.00;1612.80;;;;;;5031196;28;20120;-70
2021/03/30 01:58:32;;;;;;;38.05;19.63;;;256.00;1638.40;;;;;;5033412;28;20060;-70
2021/03/30 02:00:59;;;;;;;40.38;19.30;;;256.00;1612.80;;;;;;5035746;28;20029;-70
2021/03/30 02:03:27;;;;;;;38.35;20.65;;;256.00;1612.80;;;;;;5035297;28;20025;-70
2021/03/30 02:05:56;;;;;;;39.85;20.13;;;256.00;1612.80;;;;;;5069408;28;20396;-71
2021/03/30 02:08:24;;;;;;;47.50;19.67;;;256.00;1638.40;;;;;;5097566;28;20024;-70
2021/03/30 02:10:52;;;;;;;46.10;21.67;;;256.00;1612.80;;;;;;5097692;28;20020;-71
2021/03/30 02:13:26;;;;;;;35.40;19.77;;;256.00;1612.80;;;;;;5097691;28;20117;-70
2021/03/30 02:16:01;;;;;;;35.45;19.17;;;256.00;1612.80;;;;;;5097552;28;20028;-71
2021/03/30 02:18:32;;;;;;;42.53;18.90;;;256.00;1612.80;;;;;;5097549;28;20038;-70
2021/03/30 02:21:03;;;;;;;31.27;18.08;;;256.00;1612.80;;;;;;5097340;28;20052;-71
2021/03/30 02:23:36;;;;;;;34.40;18.80;;;256.00;1638.40;;;;;;5097550;28;20012;-74
2021/03/30 02:26:03;;;;;;;36.15;17.95;;;256.00;1638.40;;;;;;5097468;28;20123;-73
2021/03/30 02:28:51;;;;;;;29.65;16.52;;;256.00;1638.40;;;;;;5097521;28;20095;-73
2021/03/30 02:31:23;;;;;;;29.83;15.88;;;256.00;1638.40;;;;;;5097204;28;20054;-74
2021/03/30 02:33:51;;;;;;;26.70;15.27;;;256.00;1612.80;;;;;;5097030;28;20012;-73
2021/03/30 02:36:20;;;;;;;28.98;14.32;;;256.00;1612.80;;;;;;5096896;28;20059;-73
2021/03/30 02:38:48;;;;;;;28.25;15.55;;;256.10;1612.80;;;;;;5097165;28;20028;-74
2021/03/30 02:41:16;;;;;;;27.98;14.55;;;256.10;1612.80;;;;;;5097160;28;20412;-74
2021/03/30 02:43:44;;;;;;;26.42;14.10;;;256.20;1612.80;;;;;;5097124;28;20225;-74
2021/03/30 02:46:11;;;;;;;24.77;14.18;;;256.20;1612.80;;;;;;5097074;28;20027;-73
2021/03/30 02:48:39;;;;;;;26.25;13.27;;;256.20;1587.20;;;;;;5096765;28;20044;-74
2021/03/30 02:51:06;;;;;;;29.60;13.75;;;256.30;1587.20;;;;;;5096878;28;20020;-73
2021/03/30 02:53:33;;;;;;;28.58;13.82;;;256.30;1587.20;;;;;;5096839;28;20028;-74
2021/03/30 02:56:02;;;;;;;21.13;12.25;;;256.30;1561.60;;;;;;5096724;28;20424;-74
2021/03/30 02:58:28;;;;;;;24.48;12.55;;;256.40;1587.20;;;;;;5112535;28;20473;-74
2021/03/30 03:00:54;;;;;;;21.48;12.25;;;256.40;1561.60;;;;;;5096593;28;20031;-74
2021/03/30 03:03:22;;;;;;;31.55;13.15;;;256.40;1587.20;;;;;;5096282;28;20385;-74
2021/03/30 03:05:47;;;;;;;30.48;13.35;;;256.40;1561.60;;;;;;5096679;28;20020;-73
2021/03/30 03:08:14;;;;;;;31.17;13.57;;;256.40;1561.60;;;;;;5096369;28;20024;-71
2021/03/30 03:10:41;;;;;;;22.98;13.90;;;256.50;1561.60;;;;;;5096396;28;20142;-72
2021/03/30 03:13:09;;;;;;;30.02;14.38;;;256.50;1561.60;;;;;;5096068;28;20477;-72
2021/03/30 03:15:36;;;;;;;38.72;14.43;;;256.40;1587.20;;;;;;5096388;28;20043;-74
2021/03/30 03:18:03;;;;;;;33.08;13.98;;;256.50;1587.20;;;;;;5096098;28;20040;-74
2021/03/30 03:20:29;;;;;;;23.65;13.30;;;256.40;1587.20;;;;;;5096257;28;20024;-74
2021/03/30 03:22:55;;;;;;;24.85;13.80;;;256.40;1587.20;;;;;;5096062;28;20027;-74
2021/03/30 03:25:21;;;;;;;27.63;13.85;;;256.40;1587.20;;;;;;5096198;28;20024;-74
2021/03/30 03:27:47;;;;;;;24.13;13.23;;;256.40;1587.20;;;;;;5096225;28;20024;-73
2021/03/30 03:30:13;;;;;;;19.73;12.00;;;256.40;1587.20;;;;;;5095963;28;20477;-75
2021/03/30 03:32:40;;;;;;;26.05;12.10;;;256.40;1587.20;;;;;;5096119;28;20036;-73
2021/03/30 03:35:13;;;;;;;26.77;12.15;;;256.40;1587.20;;;;;;5096127;28;20036;-74
2021/03/30 03:37:46;;;;;;;41.47;14.60;;;256.30;1587.20;;;;;;5095626;28;20051;-74
2021/03/30 03:40:16;;;;;;;33.05;12.35;;;256.30;1587.20;;;;;;5095971;28;20070;-74
2021/03/30 03:42:42;;;;;;;29.98;12.88;;;256.40;1587.20;;;;;;5095862;28;20542;-74
2021/03/30 03:45:09;;;;;;;36.28;11.98;;;256.30;1587.20;;;;;;5095886;28;20024;-74
2021/03/30 03:47:35;;;;;;;25.27;11.45;;;256.40;1587.20;;;;;;5095556;28;20055;-74
2021/03/30 03:50:02;;;;;;;31.52;13.73;;;256.40;1587.20;;;;;;5095922;28;20024;-74
2021/03/30 03:52:33;;;;;;;23.42;12.48;;;256.30;1587.20;;;;;;5094337;28;20036;-74
2021/03/30 03:55:01;;;;;;;28.48;14.13;;;256.40;1587.20;;;;;;5095556;28;20016;-74
2021/03/30 03:57:33;;;;;;;29.45;15.30;;;256.40;1612.80;;;;;;5095386;28;20115;-73
2021/03/30 03:59:59;;;;;;;41.17;17.75;;;256.30;1612.80;;;;;;5095442;28;20023;-74
2021/03/30 04:02:32;;;;;;;31.50;17.33;;;256.30;1612.80;;;;;;5095435;28;20114;-74
2021/03/30 04:05:56;;;;;;;34.83;16.38;;;256.30;1612.80;;;;;;5095239;28;20024;-73
2021/03/30 04:08:25;;;;;;;35.63;15.70;;;256.30;1612.80;;;;;;5032406;28;20515;-74
2021/03/30 04:10:52;;;;;;;28.88;14.32;;;256.30;1612.80;;;;;;5032956;28;20026;-74
2021/03/30 04:13:20;;;;;;;29.90;14.10;;;256.30;1612.80;;;;;;5032939;28;20026;-74
2021/03/30 04:15:46;;;;;;;31.77;14.05;;;256.30;1612.80;;;;;;5032944;28;20075;-74
2021/03/30 04:18:12;;;;;;;38.20;16.50;;;256.30;1612.80;;;;;;5032656;28;20549;-74
2021/03/30 04:20:38;;;;;;;35.90;15.20;;;256.30;1612.80;;;;;;5031530;28;20049;-74
2021/03/30 04:23:04;;;;;;;32.97;13.82;;;256.30;1612.80;;;;;;5032651;28;20025;-74
2021/03/30 04:25:30;;;;;;;28.83;15.27;;;256.30;1612.80;;;;;;5032678;28;20033;-74
2021/03/30 04:27:56;;;;;;;41.55;14.73;;;256.30;1612.80;;;;;;5032750;28;20025;-75
2021/03/30 04:30:23;;;;;;;35.03;14.38;;;256.30;1638.40;;;;;;5032625;28;20025;-75
2021/03/30 04:32:49;;;;;;;33.10;15.30;;;256.30;1638.40;;;;;;5032729;28;20424;-75
2021/03/30 04:35:15;;;;;;;36.80;15.38;;;256.30;1638.40;;;;;;5015339;28;20069;-74
2021/03/30 04:37:41;;;;;;;37.63;16.98;;;256.30;1638.40;;;;;;5035678;28;20128;-75
2021/03/30 04:40:09;;;;;;;37.15;15.93;;;256.30;1638.40;;;;;;5094671;28;20020;-75
2021/03/30 04:42:35;;;;;;;34.92;17.80;;;256.30;1638.40;;;;;;5094482;28;20034;-74
2021/03/30 04:45:01;;;;;;;34.85;17.08;;;256.30;1638.40;;;;;;5094402;28;20373;-74
2021/03/30 04:47:27;;;;;;;34.15;18.02;;;256.30;1638.40;;;;;;5094680;28;20024;-74
2021/03/30 04:49:53;;;;;;;35.05;22.25;;;256.30;1638.40;;;;;;5094582;28;20047;-73
2021/03/30 04:52:19;;;;;;;45.78;26.63;;;256.40;1638.40;;;;;;5094560;28;20039;-74
2021/03/30 04:54:44;;;;;;;55.13;27.85;;;256.40;1638.40;;;;;;5094404;28;20040;-75
2021/03/30 04:57:10;;;;;;;46.50;26.92;;;256.40;1638.40;;;;;;5094323;28;20032;-75
2021/03/30 04:59:36;;;;;;;49.63;26.10;;;256.40;1638.40;;;;;;5094301;28;20032;-75
2021/03/30 05:02:02;;;;;;;60.80;26.42;;;256.40;1612.80;;;;;;5094121;28;20082;-74
2021/03/30 05:04:27;;;;;;;62.85;31.67;;;256.40;1638.40;;;;;;5094148;28;20051;-74
2021/03/30 05:06:53;;;;;;;66.93;33.17;;;256.50;1612.80;;;;;;5094364;28;20025;-73
2021/03/30 05:09:19;;;;;;;60.55;29.13;;;256.60;1612.80;;;;;;5094214;28;20020;-75
2021/03/30 05:11:45;;;;;;;55.67;29.45;;;256.50;1612.80;;;;;;5094659;28;20059;-75
2021/03/30 05:14:10;;;;;;;44.40;25.13;;;256.60;1612.80;;;;;;5094280;28;20024;-75
2021/03/30 05:16:36;;;;;;;48.90;23.92;;;256.60;1612.80;;;;;;5093758;28;20067;-75
2021/03/30 05:19:02;;;;;;;68.78;25.08;;;256.60;1638.40;;;;;;5093834;28;20020;-74
2021/03/30 05:21:28;;;;;;;102.30;38.25;;;256.60;1612.80;;;;;;5093727;28;20111;-71
2021/03/30 05:23:54;;;;;;;243.30;153.48;;;256.60;1612.80;;;;;;5092409;28;20487;-74
2021/03/30 05:26:19;;;;;;;268.27;189.35;;;256.60;1612.80;;;;;;5094047;28;20377;-74
2021/03/30 05:28:45;;;;;;;161.55;103.63;;;256.70;1638.40;;;;;;5094020;28;20481;-73
2021/03/30 05:31:11;;;;;;;92.88;56.25;;;256.70;1638.40;;;;;;5093823;28;20020;-74
2021/03/30 05:33:37;;;;;;;87.13;50.88;;;256.70;1612.80;;;;;;5093127;28;20066;-75
2021/03/30 05:36:03;;;;;;;82.90;46.13;;;256.80;1638.40;;;;;;5093585;28;20062;-75
2021/03/30 05:38:29;;;;;;;72.07;39.03;;;256.80;1612.80;;;;;;5091693;28;20024;-75
2021/03/30 05:40:55;;;;;;;87.60;40.83;;;256.90;1612.80;;;;;;5093413;28;20070;-74
2021/03/30 05:43:21;;;;;;;94.80;42.72;;;281.60;1638.40;;;;;;5092040;28;20029;-73
2021/03/30 05:45:47;;;;;;;99.25;48.53;;;281.60;1612.80;;;;;;5092353;28;20096;-74
2021/03/30 05:48:14;;;;;;;78.20;41.05;;;281.60;1612.80;;;;;;5093306;28;20024;-74
2021/03/30 05:50:40;;;;;;;60.72;33.38;;;281.60;1612.80;;;;;;5092939;28;20470;-71
2021/03/30 05:53:11;;;;;;;62.97;32.47;;;281.70;1587.20;;;;;;5092559;28;20036;-72
2021/03/30 05:55:45;;;;;;;77.28;36.53;;;281.80;1587.20;;;;;;5092990;28;20028;-72
2021/03/30 05:58:11;;;;;;;81.25;38.30;;;281.80;1587.20;;;;;;5093096;28;20034;-74
2021/03/30 06:00:43;;;;;;;70.00;37.22;;;281.90;1587.20;;;;;;5092820;28;20497;-74
2021/03/30 06:03:12;;;;;;;83.68;41.65;;;281.90;1587.20;;;;;;5092930;28;20099;-75
2021/03/30 06:05:39;;;;;;;88.43;41.55;;;281.90;1587.20;;;;;;5093224;28;20085;-73
2021/03/30 06:08:05;;;;;;;84.20;42.75;;;282.00;1561.60;;;;;;5092903;28;20113;-75
2021/03/30 06:10:33;;;;;;;81.32;41.53;;;282.00;1561.60;;;;;;5092882;28;20039;-75
2021/03/30 06:13:03;;;;;;;83.72;40.33;;;282.10;1561.60;;;;;;5088203;28;20024;-74
2021/03/30 06:15:34;;;;;;;78.57;37.95;;;282.10;1536.00;;;;;;5092067;28;20384;-73
2021/03/30 06:18:15;;;;;;;94.15;43.05;;;282.10;1536.00;;;;;;5092137;28;20031;-75
2021/03/30 06:20:41;;;;;;;92.35;42.75;;;282.20;1536.00;;;;;;5092366;28;20012;-74
2021/03/30 06:23:07;;;;;;;82.93;40.10;;;282.20;1536.00;;;;;;5092032;28;20074;-70
2021/03/30 06:25:34;;;;;;;71.32;38.17;;;282.30;1536.00;;;;;;5092045;28;20024;-74
2021/03/30 06:28:24;;;;;;;85.05;43.47;;;282.30;1587.20;;;;;;5088610;28;20034;-74
2021/03/30 06:31:12;;;;;;;60.53;34.92;;;282.30;1612.80;;;;;;5090978;28;20043;-75
2021/03/30 06:33:55;;;;;;;37.38;22.77;;;282.40;1612.80;;;;;;5092560;28;20030;-73
2021/03/30 06:36:33;;;;;;;42.20;21.40;;;282.40;1638.40;;;;;;5091360;28;20118;-75
2021/03/30 06:39:05;;;;;;;38.58;20.25;;;282.40;1612.80;;;;;;5092422;28;20035;-74
2021/03/30 06:46:52;;;;;;;43.67;20.15;;;307.20;1638.40;;;;;;5095562;28;20034;-74
2021/03/30 06:49:21;;;;;;;39.22;20.38;;;307.20;1664.00;;;;;;5095556;28;20034;-72
2021/03/30 06:51:48;;;;;;;41.22;22.20;;;307.30;1638.40;;;;;;5093761;28;20024;-76
2021/03/30 06:54:14;;;;;;;41.78;20.52;;;307.40;1638.40;;;;;;5095280;28;20062;-72
2021/03/30 06:56:58;;;;;;;37.42;20.58;;;307.40;1664.00;;;;;;5095818;28;20039;-75
2021/03/30 06:59:25;;;;;;;32.53;17.88;;;307.50;1664.00;;;;;;5093967;28;20028;-75
2021/03/30 07:01:55;;;;;;;30.40;19.30;;;307.50;1664.00;;;;;;5095610;28;20070;-74
2021/03/30 07:04:20;;;;;;;38.92;18.58;;;307.60;1664.00;;;;;;5093975;28;20024;-73
2021/03/30 07:06:53;;;;;;;31.63;18.38;;;307.60;1664.00;;;;;;5095324;28;20077;-75
2021/03/30 07:09:22;;;;;;;30.67;18.73;;;307.60;1638.40;;;;;;5095521;28;20054;-75
2021/03/30 07:11:49;;;;;;;30.67;18.35;;;307.70;1638.40;;;;;;5094920;28;20043;-73
2021/03/30 07:14:15;;;;;;;34.65;18.38;;;307.70;1638.40;;;;;;5095328;28;20063;-75
2021/03/30 07:17:01;;;;;;;57.40;25.67;;;307.80;1638.40;;;;;;5095507;28;20063;-75
2021/03/30 07:19:31;;;;;;;52.22;26.30;;;307.90;1638.40;;;;;;5092849;28;20143;-75
2021/03/30 07:22:04;;;;;;;37.15;20.85;;;308.00;1612.80;;;;;;5094252;28;20538;-74
2021/03/30 07:24:44;;;;;;;37.05;20.25;;;332.80;1664.00;;;;;;5095232;28;20024;-74
2021/03/30 07:27:17;;;;;;;37.58;20.83;;;333.00;1638.40;;;;;;5094409;28;20027;-72
2021/03/30 07:29:46;;;;;;;32.03;18.13;;;333.10;1612.80;;;;;;5095394;28;20043;-74
2021/03/30 07:32:43;;;;;;;30.85;18.25;;;333.30;1612.80;;;;;;5095112;28;20023;-73
2021/03/30 07:35:17;;;;;;;33.45;19.30;;;333.40;1587.20;;;;;;5094515;28;20070;-72
2021/03/30 07:38:12;;;;;;;31.33;19.60;;;333.50;1587.20;;;;;;5094839;28;20044;-72
2021/03/30 07:40:40;;;;;;;29.27;18.63;;;333.60;1587.20;;;;;;5094813;28;20524;-74
2021/03/30 07:43:09;;;;;;;34.50;19.02;;;333.70;1561.60;;;;;;5094602;28;20031;-74
2021/03/30 07:45:39;;;;;;;34.67;18.52;;;358.40;1561.60;;;;;;5094735;28;20029;-74
2021/03/30 07:48:06;;;;;;;30.58;18.42;;;358.50;1536.00;;;;;;5094579;28;20384;-74
2021/03/30 07:51:04;;;;;;;33.85;19.92;;;358.60;1510.40;;;;;;5094387;28;20480;-74
2021/03/30 07:53:50;;;;;;;35.65;20.08;;;358.70;1484.80;;;;;;5093002;28;20130;-74
2021/03/30 07:56:24;;;;;;;39.03;19.55;;;358.80;1484.80;;;;;;5092733;28;20068;-74
2021/03/30 07:58:52;;;;;;;34.42;19.35;;;358.90;1459.20;;;;;;5094644;28;20487;-74
2021/03/30 08:01:19;;;;;;;43.55;20.55;;;358.90;1459.20;;;;;;5094106;28;20125;-73
2021/03/30 08:03:47;;;;;;;38.42;20.17;;;359.00;1459.20;;;;;;5092606;28;20058;-74
2021/03/30 08:06:19;;;;;;;31.27;19.45;;;359.10;1459.20;;;;;;5094411;28;20024;-73
2021/03/30 08:08:57;;;;;;;39.33;18.55;;;359.10;1459.20;;;;;;5094157;28;20024;-74
2021/03/30 08:11:41;;;;;;;40.20;19.05;;;359.30;1459.20;;;;;;5092205;28;20031;-74
2021/03/30 08:14:28;;;;;;;36.87;18.50;;;384.00;1459.20;;;;;;5091243;28;20040;-73
2021/03/30 08:16:56;;;;;;;36.42;18.08;;;384.10;1459.20;;;;;;5027874;28;20033;-73
2021/03/30 08:19:25;;;;;;;33.30;17.75;;;384.20;1459.20;;;;;;5028793;28;20053;-73
2021/03/30 08:22:03;;;;;;;34.10;17.90;;;384.20;1484.80;;;;;;5030621;28;20503;-73
2021/03/30 08:24:43;;;;;;;33.30;17.63;;;384.20;1433.60;;;;;;5030106;28;20386;-74
2021/03/30 08:27:32;;;;;;;30.90;17.75;;;384.30;1408.00;;;;;;5029262;28;20029;-73
2021/03/30 08:29:59;;;;;;;39.10;21.08;;;384.50;1382.40;;;;;;5030032;28;20487;-74
2021/03/30 08:32:27;;;;;;;42.40;20.10;;;384.50;1382.40;;;;;;5031060;28;20028;-74
2021/03/30 08:34:53;;;;;;;36.15;20.25;;;384.70;1382.40;;;;;;5027614;28;20503;-73
2021/03/30 08:37:20;;;;;;;62.40;25.38;;;384.80;1382.40;;;;;;5027777;28;20061;-74
2021/03/30 08:39:46;;;;;;;48.15;24.60;;;384.80;1382.40;;;;;;5028102;28;20017;-73
2021/03/30 08:42:17;;;;;;;59.63;26.17;;;384.90;1382.40;;;;;;5028269;28;20030;-73
2021/03/30 08:45:05;;;;;;;54.60;24.35;;;384.90;1382.40;;;;;;5014256;28;20067;-74
2021/03/30 08:47:36;;;;;;;54.13;26.70;;;409.60;1382.40;;;;;;4936469;29;20397;-75
2021/03/30 08:50:13;;;;;;;53.25;27.40;;;409.70;1382.40;;;;;;4952342;28;20031;-73
2021/03/30 08:52:39;;;;;;;64.13;26.58;;;409.80;1382.40;;;;;;4935989;29;20063;-74
2021/03/30 08:55:06;;;;;;;59.05;27.35;;;409.90;1382.40;;;;;;5014453;28;20038;-73
2021/03/30 08:57:39;;;;;;;56.45;26.65;;;409.90;1382.40;;;;;;5021098;28;20451;-71
2021/03/30 09:00:08;;;;;;;62.25;26.90;;;410.00;1356.80;;;;;;5021928;28;20037;-73
2021/03/30 09:02:34;;;;;;;79.45;25.55;;;410.10;1356.80;;;;;;5020722;28;20033;-74
2021/03/30 09:05:01;;;;;;;63.80;25.10;;;410.30;1331.20;;;;;;5019668;28;20072;-73
2021/03/30 09:07:40;;;;;;;50.97;21.38;;;410.30;1305.60;;;;;;5004575;28;20018;-74
2021/03/30 09:10:07;;;;;;;43.63;20.00;;;410.40;1280.00;;;;;;5021436;28;20025;-73
2021/03/30 09:12:32;;;;;;;31.88;17.08;;;410.50;1280.00;;;;;;5020459;28;20111;-74
2021/03/30 09:15:01;;;;;;;25.73;15.77;;;410.50;1254.40;;;;;;5019559;28;20578;-72
2021/03/30 09:17:28;;;;;;;36.60;16.92;;;435.20;1254.40;;;;;;5021368;28;20072;-72
2021/03/30 09:19:54;;;;;;;34.05;17.85;;;435.30;1254.40;;;;;;5020723;28;20030;-74
2021/03/30 09:22:32;;;;;;;42.53;24.70;;;435.40;1254.40;;;;;;5019578;28;20099;-74
2021/03/30 09:27:30;;;;;;;66.00;19.17;;;435.60;1254.40;;;;;;5092794;28;20034;-72
2021/03/30 09:30:01;;;;;;;72.40;19.27;;;435.60;1228.80;;;;;;5092648;28;20105;-73
2021/03/30 09:32:30;;;;;;;48.45;19.05;;;435.70;1228.80;;;;;;5089603;28;20099;-74
2021/03/30 09:35:06;;;;;;;30.75;15.07;;;435.70;1228.80;;;;;;5092469;28;20051;-74
2021/03/30 09:37:53;;;;;;;27.08;15.80;;;435.80;1177.60;;;;;;5090129;28;20040;-75
2021/03/30 09:40:32;;;;;;;28.30;17.30;;;435.80;1177.60;;;;;;5089061;28;20016;-74
2021/03/30 09:42:59;;;;;;;26.55;16.92;;;435.80;1177.60;;;;;;5090381;28;20020;-73
2021/03/30 09:45:29;;;;;;;34.53;18.13;;;435.90;1177.60;;;;;;5092309;28;20017;-73
2021/03/30 09:47:56;;;;;;;32.15;16.80;;;436.00;1152.00;;;;;;5092234;28;20466;-73
2021/03/30 09:50:24;;;;;;;25.88;16.73;;;436.00;1152.00;;;;;;5092424;28;20024;-73
2021/03/30 09:52:51;;;;;;;27.48;16.05;;;436.10;1126.40;;;;;;5092004;28;20025;-74
2021/03/30 09:55:33;;;;;;;29.08;16.30;;;460.80;1152.00;;;;;;5093265;28;20035;-73
2021/03/30 09:58:07;;;;;;;29.15;15.90;;;460.80;1152.00;;;;;;5093908;28;20044;-74
2021/03/30 10:00:36;;;;;;;34.40;17.88;;;460.90;1152.00;;;;;;5093597;28;20028;-74
2021/03/30 10:03:03;;;;;;;67.55;16.58;;;461.00;1152.00;;;;;;5093478;28;20021;-72
2021/03/30 10:05:39;;;;;;;28.27;12.43;;;461.00;1126.40;;;;;;5093763;28;20473;-74
2021/03/30 10:08:16;;;;;;;22.58;11.30;;;461.10;1126.40;;;;;;5091708;28;20074;-74
2021/03/30 10:10:53;;;;;;;35.95;11.57;;;461.20;1126.40;;;;;;5091604;28;20036;-74
2021/03/30 10:13:31;;;;;;;19.17;9.98;;;461.20;1126.40;;;;;;5093706;28;20028;-73
2021/03/30 10:16:00;;;;;;;41.53;11.63;;;461.30;1126.40;;;;;;5093620;28;20047;-74
2021/03/30 10:18:27;;;;;;;46.30;22.48;;;461.40;1152.00;;;;;;5093621;28;20043;-76
2021/03/30 10:20:58;;;;;;;47.22;20.77;;;461.50;1152.00;;;;;;5095882;28;20123;-73
2021/03/30 10:23:27;;;;;;;875.60;86.53;;;461.50;1177.60;;;;;;5097241;28;20052;-73
2021/03/30 10:25:53;;;;;;;493.90;47.05;;;461.50;1177.60;;;;;;5096447;28;20099;-73
2021/03/30 10:28:31;;;;;;;130.15;18.63;;;461.50;1152.00;;;;;;5094261;28;20028;-72
2021/03/30 10:31:05;;;;;;;73.18;14.10;;;461.60;1126.40;;;;;;5092986;28;20035;-74
2021/03/30 10:33:40;;;;;;;31.65;9.73;;;461.70;1126.40;;;;;;5096465;28;20369;-74
2021/03/30 10:36:13;;;;;;;23.95;8.35;;;486.40;1126.40;;;;;;5095204;28;20040;-72
2021/03/30 10:38:59;;;;;;;18.52;9.38;;;486.40;1126.40;;;;;;5096752;28;20034;-73
2021/03/30 10:41:36;;;;;;;15.38;8.77;;;486.50;1100.80;;;;;;5075971;28;20025;-73
2021/03/30 10:44:03;;;;;;;18.42;8.30;;;486.50;1100.80;;;;;;5076660;28;20024;-73
2021/03/30 10:46:28;;;;;;;14.32;8.07;;;486.50;1100.80;;;;;;5076959;28;20029;-73
2021/03/30 10:48:59;;;;;;;21.90;10.98;;;486.50;1126.40;;;;;;5076360;28;20020;-73
2021/03/30 10:51:25;;;;;;;15.30;8.60;;;486.60;1126.40;;;;;;5074890;28;20032;-74
2021/03/30 10:53:50;;;;;;;15.82;9.00;;;486.60;1126.40;;;;;;5076538;28;20023;-73
2021/03/30 10:56:16;;;;;;;18.65;9.38;;;486.60;1126.40;;;;;;5076342;28;20033;-72
2021/03/30 10:58:42;;;;;;;18.30;8.50;;;486.60;1126.40;;;;;;5076672;28;20028;-73
2021/03/30 11:01:08;;;;;;;15.88;7.97;;;486.50;1152.00;;;;;;5075003;28;20119;-74
2021/03/30 11:03:33;;;;;;;26.05;9.55;;;486.60;1126.40;;;;;;5076375;28;20060;-74
2021/03/30 11:05:59;;;;;;;43.08;10.55;;;486.60;1126.40;;;;;;5076180;28;20024;-74
2021/03/30 11:08:25;;;;;;;26.20;9.38;;;486.70;1126.40;;;;;;5076377;28;20053;-73
2021/03/30 11:10:51;;;;;;;15.30;8.45;;;486.70;1126.40;;;;;;5076232;28;20420;-74
2021/03/30 11:13:17;;;;;;;16.75;8.23;;;486.70;1152.00;;;;;;5076289;28;20020;-73
2021/03/30 11:15:42;;;;;;;17.83;6.85;;;486.70;1152.00;;;;;;5076265;28;20039;-74
2021/03/30 11:18:08;;;;;;;15.57;5.55;;;486.80;1152.00;;;;;;5074591;28;20047;-73
2021/03/30 11:20:34;;;;;;;81.85;10.55;;;486.70;1177.60;;;;;;5076291;28;20374;-74
2021/03/30 11:23:02;;;;;;;127.43;15.10;;;486.70;1152.00;;;;;;5076080;28;20450;-73
2021/03/30 11:25:27;;;;;;;37.00;7.10;;;486.70;1152.00;;;;;;5074840;28;20031;-73
2021/03/30 11:27:56;;;;;;;23.05;8.10;;;486.60;1152.00;;;;;;5076106;28;20380;-74
2021/03/30 11:30:26;;;;;;;18.88;6.60;;;486.60;1152.00;;;;;;5075524;28;20016;-74
2021/03/30 11:38:24;;;;;;;14.23;6.88;;;486.60;1177.60;;;;;;5073391;28;20109;-74
2021/03/30 11:40:50;;;;;;;34.75;7.97;;;486.70;1152.00;;;;;;5073470;28;20043;-74
2021/03/30 11:43:17;;;;;;;63.08;14.18;;;486.70;1152.00;;;;;;5073526;28;20036;-74
2021/03/30 11:45:43;;;;;;;35.50;8.88;;;486.70;1152.00;;;;;;5073523;28;20482;-74
2021/03/30 11:48:09;;;;;;;23.75;8.30;;;486.80;1126.40;;;;;;5073395;28;20028;-73
2021/03/30 11:50:35;;;;;;;17.20;6.68;;;486.80;1152.00;;;;;;5073490;28;20186;-74
2021/03/30 11:53:01;;;;;;;14.57;6.82;;;486.90;1152.00;;;;;;5073485;28;20074;-73
2021/03/30 11:55:27;;;;;;;15.15;7.00;;;486.90;1126.40;;;;;;5073148;28;20033;-73
2021/03/30 11:57:54;;;;;;;19.95;7.78;;;486.80;1152.00;;;;;;5073323;28;20543;-74
2021/03/30 12:00:21;;;;;;;12.68;6.53;;;486.80;1152.00;;;;;;5056162;28;20082;-74
2021/03/30 12:02:47;;;;;;;40.65;9.43;;;486.80;1126.40;;;;;;5072929;28;20033;-73
2021/03/30 12:05:13;;;;;;;100.82;12.15;;;486.80;1126.40;;;;;;5072966;28;20066;-74
2021/03/30 12:07:39;;;;;;;63.10;14.02;;;486.80;1126.40;;;;;;5071863;28;20032;-74
2021/03/30 12:10:06;;;;;;;42.78;11.55;;;486.80;1126.40;;;;;;5073340;28;20037;-74
2021/03/30 12:12:33;;;;;;;33.58;9.63;;;486.80;1126.40;;;;;;5056075;28;20028;-74
2021/03/30 12:14:58;;;;;;;14.73;8.23;;;486.80;1126.40;;;;;;5073188;28;20036;-74
2021/03/30 12:17:24;;;;;;;13.20;7.10;;;486.90;1152.00;;;;;;5072833;28;20041;-74
2021/03/30 12:19:51;;;;;;;12.73;7.05;;;486.90;1152.00;;;;;;5085856;28;20111;-73
2021/03/30 12:22:17;;;;;;;15.85;6.82;;;487.00;1152.00;;;;;;5094909;28;20070;-74
2021/03/30 12:24:42;;;;;;;11.73;5.78;;;487.00;1152.00;;;;;;5094730;28;20024;-72
2021/03/30 12:27:09;;;;;;;11.77;6.60;;;487.10;1152.00;;;;;;5094492;28;20469;-73